Time;durP1;ratioP1;P1;durP2;ratioP2;P2;SDS_P1;SDS_P2;PMS_P1;PMS_P2;Temp;Humidity;BMP_temperature;BMP_pressure;BME280_temperature;BME280_humidity;BME280_pressure;Samples;Min_cycle;Max_cycle;Signal;HPM_P1;HPM_P2
2023/10/19 00:02:05;;;;;;;3.95;0.90;;;;;;;;;;5024223;28;20034;-73
2023/10/19 00:04:32;;;;;;;4.68;0.90;;;;;;;;;;5022733;28;20041;-73
2023/10/19 00:06:58;;;;;;;1.45;1.08;;;;;;;;;;5024317;28;20532;-73
2023/10/19 00:09:25;;;;;;;3.13;0.90;;;;;;;;;;5024402;28;20056;-73
2023/10/19 00:11:51;;;;;;;3.63;1.00;;;;;;;;;;5024135;28;20037;-73
2023/10/19 00:14:21;;;;;;;3.13;0.73;;;;;;;;;;5005722;28;20041;-73
2023/10/19 00:17:10;;;;;;;6.35;0.90;;;;;;;;;;5024294;28;20045;-73
2023/10/19 00:19:41;;;;;;;2.92;0.80;;;;;;;;;;5006561;28;20033;-73
2023/10/19 00:22:15;;;;;;;2.92;0.70;;;;;;;;;;5024229;28;20430;-73
2023/10/19 00:24:41;;;;;;;2.10;0.70;;;;;;;;;;5024476;28;20045;-73
2023/10/19 00:27:15;;;;;;;2.78;0.93;;;;;;;;;;5024224;28;20052;-73
2023/10/19 00:29:41;;;;;;;3.00;1.48;;;;;;;;;;5024248;28;20111;-73
2023/10/19 00:32:12;;;;;;;4.03;0.80;;;;;;;;;;5025701;28;20041;-73
2023/10/19 00:34:38;;;;;;;2.85;0.82;;;;;;;;;;5033705;28;20036;-73
2023/10/19 00:37:07;;;;;;;3.58;1.00;;;;;;;;;;5037130;28;20033;-73
2023/10/19 00:39:42;;;;;;;4.20;1.10;;;;;;;;;;5005629;28;20128;-73
2023/10/19 00:42:08;;;;;;;2.60;0.82;;;;;;;;;;5024057;28;20539;-73
2023/10/19 00:44:42;;;;;;;3.30;1.42;;;;;;;;;;5023420;28;20037;-73
2023/10/19 00:47:12;;;;;;;6.75;1.00;;;;;;;;;;5024387;28;20052;-73
2023/10/19 00:49:38;;;;;;;3.55;1.08;;;;;;;;;;5006295;28;20465;-73
2023/10/19 00:52:12;;;;;;;6.97;1.17;;;;;;;;;;5024127;28;20128;-73
2023/10/19 00:54:55;;;;;;;3.38;1.00;;;;;;;;;;5005979;28;20041;-73
2023/10/19 00:57:21;;;;;;;4.43;0.98;;;;;;;;;;5021903;28;20049;-73
2023/10/19 01:04:46;;;;;;;1.52;0.70;;;;;;;;;;5027996;28;20063;-73
2023/10/19 01:07:15;;;;;;;3.30;0.90;;;;;;;;;;5027891;28;20104;-73
2023/10/19 01:09:43;;;;;;;1.55;1.00;;;;;;;;;;5027802;28;20052;-73
2023/10/19 01:15:06;;;;;;;5.22;1.15;;;;;;;;;;5027690;28;20958;-73
2023/10/19 01:17:34;;;;;;;1.80;0.90;;;;;;;;;;5028043;28;20554;-73
2023/10/19 01:20:00;;;;;;;3.92;1.20;;;;;;;;;;5023571;28;20474;-73
2023/10/19 01:22:26;;;;;;;5.38;1.27;;;;;;;;;;5028167;28;20112;-73
2023/10/19 01:24:53;;;;;;;5.40;1.30;;;;;;;;;;5027924;28;20075;-73
2023/10/19 01:27:18;;;;;;;3.80;1.15;;;;;;;;;;5009615;28;20036;-73
2023/10/19 01:29:44;;;;;;;4.05;1.20;;;;;;;;;;5026717;28;20044;-73
2023/10/19 01:32:11;;;;;;;2.63;1.02;;;;;;;;;;5009373;28;20060;-73
2023/10/19 01:34:37;;;;;;;3.03;1.10;;;;;;;;;;5009607;28;20021;-73
2023/10/19 01:37:05;;;;;;;8.40;1.65;;;;;;;;;;5019699;28;20029;-73
2023/10/19 01:39:31;;;;;;;8.82;1.90;;;;;;;;;;4989667;28;20472;-73
2023/10/19 01:41:57;;;;;;;7.03;2.10;;;;;;;;;;5007492;28;20026;-73
2023/10/19 01:44:24;;;;;;;4.57;1.60;;;;;;;;;;5007128;28;20064;-73
2023/10/19 01:46:50;;;;;;;5.10;1.92;;;;;;;;;;5007774;28;20030;-73
2023/10/19 01:49:25;;;;;;;8.88;1.65;;;;;;;;;;5008771;28;20022;-73
2023/10/19 01:51:51;;;;;;;5.10;2.00;;;;;;;;;;4990709;28;20080;-73
2023/10/19 01:54:18;;;;;;;2.47;1.40;;;;;;;;;;5016020;28;20033;-73
2023/10/19 01:56:43;;;;;;;3.88;1.48;;;;;;;;;;5006063;28;20449;-73
2023/10/19 01:59:09;;;;;;;3.53;1.25;;;;;;;;;;5032665;28;20034;-73
2023/10/19 02:01:37;;;;;;;3.85;1.23;;;;;;;;;;5009131;28;20042;-73
2023/10/19 02:04:05;;;;;;;4.60;1.40;;;;;;;;;;5008091;28;20088;-73
2023/10/19 02:06:40;;;;;;;6.07;1.25;;;;;;;;;;5006481;28;20061;-73
2023/10/19 02:09:21;;;;;;;8.30;1.50;;;;;;;;;;5007236;28;20531;-74
2023/10/19 02:11:47;;;;;;;6.28;1.25;;;;;;;;;;5005526;28;20041;-73
2023/10/19 02:14:14;;;;;;;2.90;1.05;;;;;;;;;;5005478;28;20568;-73
2023/10/19 02:16:46;;;;;;;6.10;1.42;;;;;;;;;;5004652;28;20034;-73
2023/10/19 02:19:12;;;;;;;7.18;1.45;;;;;;;;;;5006901;28;20710;-73
2023/10/19 02:21:40;;;;;;;3.03;1.30;;;;;;;;;;5006245;28;20042;-73
2023/10/19 02:24:14;;;;;;;4.15;1.50;;;;;;;;;;5006381;28;20048;-73
2023/10/19 02:26:40;;;;;;;5.05;1.50;;;;;;;;;;5005288;28;20603;-73
2023/10/19 02:29:07;;;;;;;5.10;2.10;;;;;;;;;;5006441;28;20034;-73
2023/10/19 02:31:34;;;;;;;4.65;1.90;;;;;;;;;;5005734;28;20029;-73
2023/10/19 02:34:00;;;;;;;10.00;1.98;;;;;;;;;;5006909;28;20112;-73
2023/10/19 02:36:29;;;;;;;6.90;2.05;;;;;;;;;;5005609;28;20042;-73
2023/10/19 02:38:58;;;;;;;4.10;1.90;;;;;;;;;;5005005;28;20030;-73
2023/10/19 02:41:24;;;;;;;6.13;1.92;;;;;;;;;;5004660;28;20552;-73
2023/10/19 02:44:01;;;;;;;7.25;2.17;;;;;;;;;;5006037;28;20048;-73
2023/10/19 02:46:28;;;;;;;12.05;2.75;;;;;;;;;;5005986;28;20029;-74
2023/10/19 02:48:54;;;;;;;5.18;2.25;;;;;;;;;;5006636;28;20057;-73
2023/10/19 02:51:19;;;;;;;9.63;2.47;;;;;;;;;;4988418;28;20104;-73
2023/10/19 02:53:45;;;;;;;6.47;1.80;;;;;;;;;;5009778;28;20052;-73
2023/10/19 02:56:13;;;;;;;8.10;2.08;;;;;;;;;;4987640;28;20429;-73
2023/10/19 02:58:42;;;;;;;6.50;1.83;;;;;;;;;;5018230;28;20587;-73
2023/10/19 03:01:24;;;;;;;7.97;1.98;;;;;;;;;;5010914;28;20030;-73
2023/10/19 03:03:54;;;;;;;4.35;1.75;;;;;;;;;;4988120;28;20113;-73
2023/10/19 03:06:21;;;;;;;4.90;1.83;;;;;;;;;;5005337;28;20045;-73
2023/10/19 03:08:55;;;;;;;5.90;1.95;;;;;;;;;;4988388;28;20084;-73
2023/10/19 03:11:20;;;;;;;7.75;2.28;;;;;;;;;;5006851;28;20086;-73
2023/10/19 03:13:50;;;;;;;6.65;2.40;;;;;;;;;;5011617;28;20053;-73
2023/10/19 03:16:15;;;;;;;8.10;2.40;;;;;;;;;;5001530;28;20021;-73
2023/10/19 03:18:41;;;;;;;6.68;2.03;;;;;;;;;;4992791;28;20038;-73
2023/10/19 03:21:07;;;;;;;10.45;1.95;;;;;;;;;;5005011;28;20109;-73
2023/10/19 03:23:34;;;;;;;7.75;1.92;;;;;;;;;;5005188;28;20042;-73
2023/10/19 03:26:23;;;;;;;5.40;1.70;;;;;;;;;;5004948;28;20038;-73
2023/10/19 03:28:54;;;;;;;4.97;2.13;;;;;;;;;;4987315;28;20053;-73
2023/10/19 03:31:26;;;;;;;5.25;1.98;;;;;;;;;;5005451;28;20390;-73
2023/10/19 03:33:55;;;;;;;6.18;1.85;;;;;;;;;;5005162;28;20389;-73
2023/10/19 03:36:25;;;;;;;5.40;1.35;;;;;;;;;;4987448;28;20054;-73
2023/10/19 03:38:53;;;;;;;3.28;1.38;;;;;;;;;;5005228;28;20054;-73
2023/10/19 03:41:24;;;;;;;4.75;1.55;;;;;;;;;;5005591;28;20117;-73
2023/10/19 03:43:51;;;;;;;5.47;1.63;;;;;;;;;;5005008;28;20038;-73
2023/10/19 03:46:24;;;;;;;6.07;1.60;;;;;;;;;;5005008;28;20025;-73
2023/10/19 03:48:50;;;;;;;7.55;1.70;;;;;;;;;;5005302;28;20089;-73
2023/10/19 03:51:17;;;;;;;8.93;1.50;;;;;;;;;;5004468;28;20148;-73
2023/10/19 03:53:48;;;;;;;6.20;1.60;;;;;;;;;;5004793;28;20042;-73
2023/10/19 03:56:14;;;;;;;4.95;1.88;;;;;;;;;;5004165;28;20049;-73
2023/10/19 03:58:42;;;;;;;10.38;1.50;;;;;;;;;;4999622;28;20110;-73
2023/10/19 04:01:08;;;;;;;8.10;1.67;;;;;;;;;;5008582;28;20038;-73
2023/10/19 04:03:36;;;;;;;7.68;2.03;;;;;;;;;;5004904;28;20061;-73
2023/10/19 04:06:03;;;;;;;6.53;1.70;;;;;;;;;;5004321;28;20030;-73
2023/10/19 04:08:34;;;;;;;7.10;1.65;;;;;;;;;;5003944;28;20083;-74
2023/10/19 04:11:08;;;;;;;3.45;1.40;;;;;;;;;;5004237;28;20034;-73
2023/10/19 04:13:38;;;;;;;5.78;1.85;;;;;;;;;;5004258;28;20118;-73
2023/10/19 04:16:05;;;;;;;7.03;2.40;;;;;;;;;;5012387;28;20032;-73
2023/10/19 04:18:31;;;;;;;3.63;2.03;;;;;;;;;;5005959;28;20061;-73
2023/10/19 04:20:57;;;;;;;8.88;3.20;;;;;;;;;;5024511;28;20159;-72
2023/10/19 04:23:27;;;;;;;10.63;1.85;;;;;;;;;;5024015;28;20934;-73
2023/10/19 04:25:56;;;;;;;7.85;2.08;;;;;;;;;;5021492;28;20108;-74
2023/10/19 04:28:30;;;;;;;9.65;2.15;;;;;;;;;;5006796;28;20079;-73
2023/10/19 04:31:00;;;;;;;9.10;2.03;;;;;;;;;;5007357;28;20045;-73
2023/10/19 04:33:28;;;;;;;5.35;1.70;;;;;;;;;;5029220;28;20086;-73
2023/10/19 04:35:55;;;;;;;8.68;1.75;;;;;;;;;;5038473;28;20037;-74
2023/10/19 04:38:23;;;;;;;3.85;1.80;;;;;;;;;;5037778;28;20034;-73
2023/10/19 04:40:48;;;;;;;3.60;1.77;;;;;;;;;;5026120;28;20040;-73
2023/10/19 04:43:14;;;;;;;4.40;1.67;;;;;;;;;;5024737;28;20025;-73
2023/10/19 04:45:40;;;;;;;5.85;2.15;;;;;;;;;;5023840;28;20622;-73
2023/10/19 04:48:06;;;;;;;8.55;2.08;;;;;;;;;;5023753;28;20037;-73
2023/10/19 04:50:31;;;;;;;3.58;1.90;;;;;;;;;;5021348;28;20086;-73
2023/10/19 04:52:57;;;;;;;11.88;2.17;;;;;;;;;;5020741;28;20025;-73
2023/10/19 04:55:22;;;;;;;7.78;2.33;;;;;;;;;;5024239;28;20025;-73
2023/10/19 04:57:48;;;;;;;8.60;2.33;;;;;;;;;;5023368;28;20124;-73
2023/10/19 05:00:15;;;;;;;8.15;2.10;;;;;;;;;;4998153;28;20076;-73
2023/10/19 05:02:41;;;;;;;6.68;1.85;;;;;;;;;;5003777;28;20034;-73
2023/10/19 05:05:06;;;;;;;8.13;2.10;;;;;;;;;;5003735;28;20100;-73
2023/10/19 05:07:33;;;;;;;11.73;1.98;;;;;;;;;;4985998;28;20030;-73
2023/10/19 05:09:59;;;;;;;6.22;1.77;;;;;;;;;;5004500;28;20496;-73
2023/10/19 05:12:24;;;;;;;6.20;1.77;;;;;;;;;;5010421;28;20037;-74
2023/10/19 05:14:50;;;;;;;6.22;1.90;;;;;;;;;;5022332;28;20045;-73
2023/10/19 05:17:16;;;;;;;5.13;1.50;;;;;;;;;;5022969;28;20060;-73
2023/10/19 05:19:41;;;;;;;6.38;1.88;;;;;;;;;;5023473;28;20084;-73
2023/10/19 05:22:08;;;;;;;6.72;1.65;;;;;;;;;;5023686;28;20419;-73
2023/10/19 05:24:34;;;;;;;8.43;1.88;;;;;;;;;;5004960;28;20195;-73
2023/10/19 05:27:00;;;;;;;7.63;1.98;;;;;;;;;;5001934;28;20038;-73
2023/10/19 05:29:25;;;;;;;5.95;1.48;;;;;;;;;;5012280;28;20044;-73
2023/10/19 05:31:54;;;;;;;7.78;1.80;;;;;;;;;;5016707;28;20034;-73
2023/10/19 05:34:21;;;;;;;5.93;1.50;;;;;;;;;;5023522;28;20026;-74
2023/10/19 05:36:48;;;;;;;9.85;2.15;;;;;;;;;;5004663;28;20040;-73
2023/10/19 05:39:15;;;;;;;5.93;2.22;;;;;;;;;;5004292;28;20034;-73
2023/10/19 05:41:40;;;;;;;6.20;1.52;;;;;;;;;;5018693;28;20052;-73
2023/10/19 05:44:06;;;;;;;9.18;1.92;;;;;;;;;;5000217;28;20033;-73
2023/10/19 05:46:32;;;;;;;10.15;2.10;;;;;;;;;;5004715;28;20021;-74
2023/10/19 05:48:57;;;;;;;7.05;1.60;;;;;;;;;;5025669;28;20811;-74
2023/10/19 05:51:23;;;;;;;8.05;1.85;;;;;;;;;;5027992;28;20072;-73
2023/10/19 05:53:48;;;;;;;9.55;2.03;;;;;;;;;;5027431;28;20077;-73
2023/10/19 05:56:16;;;;;;;4.78;1.90;;;;;;;;;;5009933;28;20042;-73
2023/10/19 05:58:42;;;;;;;8.77;2.05;;;;;;;;;;5023762;28;20048;-73
2023/10/19 06:01:07;;;;;;;13.15;2.05;;;;;;;;;;5002048;28;20017;-73
2023/10/19 06:03:33;;;;;;;7.07;1.70;;;;;;;;;;5019798;28;20041;-74
2023/10/19 06:05:58;;;;;;;7.38;1.67;;;;;;;;;;5026793;28;20142;-74
2023/10/19 06:08:23;;;;;;;5.18;1.73;;;;;;;;;;5025452;28;20076;-74
2023/10/19 06:10:52;;;;;;;6.35;1.77;;;;;;;;;;5026107;28;20036;-74
2023/10/19 06:13:18;;;;;;;8.95;1.77;;;;;;;;;;5021777;28;20583;-74
2023/10/19 06:15:43;;;;;;;11.25;1.88;;;;;;;;;;5024235;28;20040;-74
2023/10/19 06:18:10;;;;;;;5.10;1.80;;;;;;;;;;5026474;28;20044;-74
2023/10/19 06:20:36;;;;;;;5.60;1.77;;;;;;;;;;5026171;28;20034;-74
2023/10/19 06:23:04;;;;;;;10.45;1.80;;;;;;;;;;5026254;28;20535;-74
2023/10/19 06:25:29;;;;;;;8.18;1.70;;;;;;;;;;5008206;28;20034;-74
2023/10/19 06:27:57;;;;;;;6.05;1.60;;;;;;;;;;5026550;28;20542;-74
2023/10/19 06:30:23;;;;;;;7.45;1.98;;;;;;;;;;5025911;28;20104;-74
2023/10/19 06:32:50;;;;;;;5.63;2.20;;;;;;;;;;5026087;28;20034;-74
2023/10/19 06:35:17;;;;;;;4.18;1.42;;;;;;;;;;5007773;28;20581;-74
2023/10/19 06:37:43;;;;;;;10.50;2.20;;;;;;;;;;5025466;28;20033;-74
2023/10/19 06:40:11;;;;;;;8.40;1.63;;;;;;;;;;5026381;28;20037;-74
2023/10/19 06:42:37;;;;;;;7.40;1.90;;;;;;;;;;5026096;28;20175;-74
2023/10/19 06:45:03;;;;;;;8.93;2.25;;;;;;;;;;5025695;28;20068;-74
2023/10/19 06:47:29;;;;;;;8.13;1.67;;;;;;;;;;5025376;28;20077;-73
2023/10/19 06:49:55;;;;;;;8.25;2.00;;;;;;;;;;5020531;28;20124;-73
2023/10/19 06:52:21;;;;;;;10.10;2.10;;;;;;;;;;5018624;28;20036;-72
2023/10/19 06:54:47;;;;;;;8.77;2.20;;;;;;;;;;5021557;28;20029;-73
2023/10/19 06:57:12;;;;;;;5.70;2.05;;;;;;;;;;4996163;28;20051;-73
2023/10/19 06:59:38;;;;;;;7.00;1.90;;;;;;;;;;4989019;28;20408;-73
2023/10/19 07:02:04;;;;;;;12.05;2.03;;;;;;;;;;5005982;28;20120;-73
2023/10/19 07:04:29;;;;;;;9.95;2.10;;;;;;;;;;5004142;28;20037;-73
2023/10/19 07:06:56;;;;;;;7.03;2.60;;;;;;;;;;5004654;28;20168;-73
2023/10/19 07:09:22;;;;;;;8.73;2.38;;;;;;;;;;5004337;28;20037;-73
2023/10/19 07:11:48;;;;;;;4.65;1.55;;;;;;;;;;5007438;28;20042;-73
2023/10/19 07:14:13;;;;;;;7.10;1.90;;;;;;;;;;5015272;28;20056;-73
2023/10/19 07:16:42;;;;;;;8.02;1.88;;;;;;;;;;5022229;28;20041;-72
2023/10/19 07:19:09;;;;;;;9.63;2.15;;;;;;;;;;5014132;28;20022;-73
2023/10/19 07:21:36;;;;;;;12.15;1.77;;;;;;;;;;5006145;28;20064;-73
2023/10/19 07:24:05;;;;;;;8.70;1.98;;;;;;;;;;5005816;28;20409;-73
2023/10/19 07:26:33;;;;;;;10.05;1.60;;;;;;;;;;5002055;28;20414;-73
2023/10/19 07:28:59;;;;;;;11.27;1.83;;;;;;;;;;4996214;28;20029;-73
2023/10/19 07:31:27;;;;;;;11.18;2.35;;;;;;;;;;5003625;28;20121;-73
2023/10/19 07:33:55;;;;;;;6.82;1.48;;;;;;;;;;5005554;28;20159;-73
2023/10/19 07:36:21;;;;;;;10.20;1.98;;;;;;;;;;5005388;28;20195;-74
2023/10/19 07:38:47;;;;;;;5.63;2.00;;;;;;;;;;5004516;28;20117;-74
2023/10/19 07:41:13;;;;;;;6.22;1.67;;;;;;;;;;5003556;28;20029;-74
2023/10/19 07:43:39;;;;;;;10.48;1.75;;;;;;;;;;4995166;28;20036;-74
2023/10/19 07:46:04;;;;;;;14.05;2.40;;;;;;;;;;5005598;28;20612;-74
2023/10/19 07:48:30;;;;;;;10.57;2.30;;;;;;;;;;5005047;28;20095;-74
2023/10/19 07:50:55;;;;;;;6.82;1.80;;;;;;;;;;4996888;28;20038;-73
2023/10/19 07:53:21;;;;;;;9.50;1.92;;;;;;;;;;4999618;28;20042;-73
2023/10/19 07:55:46;;;;;;;7.43;1.90;;;;;;;;;;4984939;28;20860;-74
2023/10/19 07:58:12;;;;;;;14.40;2.05;;;;;;;;;;5011975;28;20052;-73
2023/10/19 08:00:38;;;;;;;6.68;2.00;;;;;;;;;;5012495;28;20048;-74
2023/10/19 08:03:04;;;;;;;8.50;1.70;;;;;;;;;;5004311;28;20042;-74
2023/10/19 08:05:31;;;;;;;8.02;1.65;;;;;;;;;;4986357;28;20509;-73
2023/10/19 08:07:58;;;;;;;7.82;1.90;;;;;;;;;;5004007;28;20042;-74
2023/10/19 08:10:25;;;;;;;8.40;1.83;;;;;;;;;;5003865;28;20436;-74
2023/10/19 08:12:52;;;;;;;9.07;1.80;;;;;;;;;;5004413;28;20052;-74
2023/10/19 08:15:18;;;;;;;13.65;2.28;;;;;;;;;;4986006;28;20604;-74
2023/10/19 08:17:55;;;;;;;11.55;2.28;;;;;;;;;;5003986;28;20100;-74
2023/10/19 08:20:24;;;;;;;15.05;2.90;;;;;;;;;;4986234;28;20091;-73
2023/10/19 08:22:53;;;;;;;14.00;3.08;;;;;;;;;;5003991;28;20113;-73
2023/10/19 08:25:19;;;;;;;12.43;3.70;;;;;;;;;;5004663;28;20026;-74
2023/10/19 08:27:45;;;;;;;17.33;5.30;;;;;;;;;;4986264;28;20037;-74
2023/10/19 08:30:14;;;;;;;22.08;5.45;;;;;;;;;;4986654;28;20153;-73
2023/10/19 08:32:41;;;;;;;21.08;4.90;;;;;;;;;;4988925;28;20424;-73
2023/10/19 08:35:11;;;;;;;18.27;4.95;;;;;;;;;;4996948;28;20030;-74
2023/10/19 08:37:37;;;;;;;15.75;4.88;;;;;;;;;;5014149;28;20022;-74
2023/10/19 08:40:04;;;;;;;14.30;3.92;;;;;;;;;;5022059;28;20093;-74
2023/10/19 08:42:30;;;;;;;14.20;3.45;;;;;;;;;;5023435;28;20584;-74
2023/10/19 08:44:56;;;;;;;12.27;3.40;;;;;;;;;;5023212;28;20124;-74
2023/10/19 08:47:25;;;;;;;11.27;3.05;;;;;;;;;;5004984;28;20117;-74
2023/10/19 08:49:52;;;;;;;11.25;2.50;;;;;;;;;;5022241;28;20091;-74
2023/10/19 08:52:21;;;;;;;7.60;2.35;;;;;;;;;;5004815;28;20061;-73
2023/10/19 08:54:48;;;;;;;7.30;2.83;;;;;;;;;;5004537;28;20076;-74
2023/10/19 08:57:14;;;;;;;14.63;3.25;;;;;;;;;;5023022;28;20061;-74
2023/10/19 08:59:39;;;;;;;13.25;3.70;;;;;;;;;;5019930;28;20061;-73
2023/10/19 09:02:06;;;;;;;16.15;4.50;;;;;;;;;;5003444;28;20042;-73
2023/10/19 09:04:32;;;;;;;15.10;3.80;;;;;;;;;;5003397;28;20053;-74
2023/10/19 09:06:57;;;;;;;10.98;3.60;;;;;;;;;;5003495;28;20052;-74
2023/10/19 09:09:26;;;;;;;12.43;3.53;;;;;;;;;;5004102;28;20595;-73
2023/10/19 09:11:54;;;;;;;19.45;4.75;;;;;;;;;;4986057;28;20034;-73
2023/10/19 09:14:36;;;;;;;16.33;4.72;;;;;;;;;;5003311;28;20037;-74
2023/10/19 09:17:03;;;;;;;21.75;4.80;;;;;;;;;;4985930;28;20044;-74
2023/10/19 09:19:36;;;;;;;14.65;4.15;;;;;;;;;;4985410;28;20026;-74
2023/10/19 09:22:07;;;;;;;17.08;4.45;;;;;;;;;;5007572;28;20666;-74
2023/10/19 09:24:33;;;;;;;15.65;4.28;;;;;;;;;;4989683;28;20029;-74
2023/10/19 09:26:59;;;;;;;16.98;4.55;;;;;;;;;;5007104;28;20030;-74
2023/10/19 09:29:25;;;;;;;17.98;4.60;;;;;;;;;;5007294;28;20041;-74
2023/10/19 09:31:52;;;;;;;17.08;5.05;;;;;;;;;;5006880;28;20148;-73
2023/10/19 09:34:18;;;;;;;15.32;4.80;;;;;;;;;;4989593;28;20064;-74
2023/10/19 09:36:44;;;;;;;15.75;4.80;;;;;;;;;;5007062;28;20061;-74
2023/10/19 09:39:12;;;;;;;17.23;4.50;;;;;;;;;;5007423;28;20045;-74
2023/10/19 09:41:39;;;;;;;14.75;4.45;;;;;;;;;;5006274;28;20054;-74
2023/10/19 09:44:10;;;;;;;11.82;3.60;;;;;;;;;;5007149;28;20038;-74
2023/10/19 09:46:38;;;;;;;11.20;3.22;;;;;;;;;;5007485;28;20022;-74
2023/10/19 09:49:06;;;;;;;12.60;3.10;;;;;;;;;;5008222;28;20640;-74
2023/10/19 09:51:32;;;;;;;11.57;2.40;;;;;;;;;;5009392;28;20034;-74
2023/10/19 09:54:09;;;;;;;8.40;2.33;;;;;;;;;;5017660;28;20037;-73
2023/10/19 09:56:41;;;;;;;9.18;2.30;;;;;;;;;;5025488;28;20053;-74
2023/10/19 09:59:13;;;;;;;9.32;2.50;;;;;;;;;;5010169;28;20045;-74
2023/10/19 10:02:14;;;;;;;6.35;2.55;;;;;;;;;;5008650;28;20033;-74
2023/10/19 10:04:40;;;;;;;10.85;2.53;;;;;;;;;;5007292;28;20429;-74
2023/10/19 10:07:09;;;;;;;10.88;2.28;;;;;;;;;;5007114;28;20017;-74
2023/10/19 10:09:45;;;;;;;13.13;3.05;;;;;;;;;;5006665;28;20041;-74
2023/10/19 10:12:19;;;;;;;11.18;3.67;;;;;;;;;;4988732;28;20125;-74
2023/10/19 10:15:02;;;;;;;10.40;2.58;;;;;;;;;;5006182;28;20041;-74
2023/10/19 10:17:28;;;;;;;14.00;3.92;;;;;;;;;;5005779;28;20042;-74
2023/10/19 10:19:56;;;;;;;16.92;4.30;;;;;;;;;;5005903;28;20058;-74
2023/10/19 10:22:22;;;;;;;16.45;5.10;;;;;;;;;;5006954;28;20026;-74
2023/10/19 10:24:54;;;;;;;17.23;6.05;;;;;;;;;;5005680;28;20579;-74
2023/10/19 10:27:20;;;;;;;21.83;6.43;;;;;;;;;;5005993;28;20124;-74
2023/10/19 10:29:55;;;;;;;21.83;6.90;;;;;;;;;;4988247;28;20183;-74
2023/10/19 10:32:47;;;;;;;21.30;6.45;;;;;;;;;;5004918;28;20026;-74
2023/10/19 10:35:41;;;;;;;19.98;7.50;;;;;;;;;;5006923;28;20042;-74
2023/10/19 10:38:12;;;;;;;21.92;7.95;;;;;;;;;;4999043;28;20088;-74
2023/10/19 10:40:49;;;;;;;22.33;8.60;;;;;;;;;;5003477;28;20021;-74
2023/10/19 10:43:15;;;;;;;26.25;7.35;;;;;;;;;;5014511;28;20026;-74
2023/10/19 10:45:41;;;;;;;16.70;4.68;;;;;;;;;;5023409;28;20040;-74
2023/10/19 10:48:18;;;;;;;15.68;5.20;;;;;;;;;;5024314;28;20037;-74
2023/10/19 10:50:46;;;;;;;10.32;4.57;;;;;;;;;;5022019;28;20126;-74
2023/10/19 10:53:12;;;;;;;12.02;3.28;;;;;;;;;;5015330;28;20037;-75
2023/10/19 10:55:39;;;;;;;6.70;2.83;;;;;;;;;;5022218;28;20119;-73
2023/10/19 10:58:04;;;;;;;7.22;2.70;;;;;;;;;;5026350;28;20052;-74
2023/10/19 11:00:32;;;;;;;9.48;3.20;;;;;;;;;;4997313;28;20037;-74
2023/10/19 11:03:09;;;;;;;12.18;3.95;;;;;;;;;;5006208;28;20061;-74
2023/10/19 11:05:35;;;;;;;6.75;2.92;;;;;;;;;;5005941;28;20117;-74
2023/10/19 11:08:13;;;;;;;8.38;2.90;;;;;;;;;;4988470;28;20034;-74
2023/10/19 11:10:39;;;;;;;10.13;3.72;;;;;;;;;;5007541;28;20034;-74
2023/10/19 11:13:10;;;;;;;8.23;2.42;;;;;;;;;;5014667;28;20033;-74
2023/10/19 11:15:37;;;;;;;6.35;2.47;;;;;;;;;;5038136;28;20049;-73
2023/10/19 11:18:02;;;;;;;5.38;2.05;;;;;;;;;;5004016;28;20040;-74
2023/10/19 11:20:28;;;;;;;5.75;1.77;;;;;;;;;;5013990;28;20041;-74
2023/10/19 11:23:00;;;;;;;8.30;1.80;;;;;;;;;;5005142;28;20034;-74
2023/10/19 11:25:31;;;;;;;5.70;1.98;;;;;;;;;;4987950;28;20065;-74
2023/10/19 11:27:59;;;;;;;3.33;1.50;;;;;;;;;;5005019;28;20038;-74
2023/10/19 11:30:31;;;;;;;4.80;1.05;;;;;;;;;;5005247;28;20083;-74
2023/10/19 11:32:57;;;;;;;3.38;1.40;;;;;;;;;;5004537;28;20516;-74
2023/10/19 11:35:28;;;;;;;1.58;1.23;;;;;;;;;;4987312;28;20026;-74
2023/10/19 11:37:55;;;;;;;3.38;1.20;;;;;;;;;;5003360;28;20029;-73
2023/10/19 11:40:22;;;;;;;1.73;1.10;;;;;;;;;;5014778;28;20064;-73
2023/10/19 11:42:48;;;;;;;1.35;0.90;;;;;;;;;;5021679;28;20037;-74
2023/10/19 11:45:14;;;;;;;3.35;1.20;;;;;;;;;;5017549;28;20421;-74
2023/10/19 11:47:39;;;;;;;2.80;0.90;;;;;;;;;;5006677;28;20048;-73
2023/10/19 11:50:05;;;;;;;2.72;1.10;;;;;;;;;;5014401;28;20053;-73
2023/10/19 11:52:31;;;;;;;4.32;1.30;;;;;;;;;;5013703;28;20068;-73
2023/10/19 11:54:56;;;;;;;4.53;1.20;;;;;;;;;;5003418;28;20049;-73
2023/10/19 11:57:24;;;;;;;3.08;1.10;;;;;;;;;;5005860;28;20049;-73
2023/10/19 11:59:52;;;;;;;2.42;1.13;;;;;;;;;;5001661;28;20033;-73
2023/10/19 12:02:18;;;;;;;2.50;1.30;;;;;;;;;;4987234;28;20041;-73
2023/10/19 12:04:45;;;;;;;2.42;1.13;;;;;;;;;;5004887;28;20076;-73
2023/10/19 12:07:11;;;;;;;4.43;1.33;;;;;;;;;;5004594;28;20022;-73
2023/10/19 12:09:36;;;;;;;4.45;1.45;;;;;;;;;;4986987;28;20036;-73
2023/10/19 12:12:05;;;;;;;3.63;1.60;;;;;;;;;;5005880;28;20533;-73
2023/10/19 12:14:34;;;;;;;4.30;1.73;;;;;;;;;;5011512;28;20080;-73
2023/10/19 12:17:01;;;;;;;3.60;1.88;;;;;;;;;;5022451;28;20037;-74
2023/10/19 12:19:28;;;;;;;5.40;2.22;;;;;;;;;;5006909;28;20021;-74
2023/10/19 12:21:54;;;;;;;8.27;3.10;;;;;;;;;;5007637;28;20022;-73
2023/10/19 12:24:20;;;;;;;4.35;2.30;;;;;;;;;;5024671;28;20416;-74
2023/10/19 12:26:46;;;;;;;5.30;2.05;;;;;;;;;;5025137;28;20038;-74
2023/10/19 12:29:13;;;;;;;7.20;2.85;;;;;;;;;;5024461;28;20056;-74
2023/10/19 12:31:39;;;;;;;11.52;3.45;;;;;;;;;;5010999;28;20056;-74
2023/10/19 12:34:06;;;;;;;4.72;2.42;;;;;;;;;;5038937;28;20025;-74
2023/10/19 12:36:31;;;;;;;7.28;3.38;;;;;;;;;;5022078;28;20424;-74
2023/10/19 12:38:57;;;;;;;9.35;4.20;;;;;;;;;;5027608;28;20040;-74
2023/10/19 12:41:24;;;;;;;11.40;5.30;;;;;;;;;;5024216;28;20061;-74
2023/10/19 12:43:57;;;;;;;12.40;4.68;;;;;;;;;;5005453;28;20080;-73
2023/10/19 12:46:27;;;;;;;13.52;4.97;;;;;;;;;;5023507;28;20043;-74
2023/10/19 12:48:54;;;;;;;15.45;6.15;;;;;;;;;;5023365;28;20060;-73
2023/10/19 12:51:29;;;;;;;20.50;7.53;;;;;;;;;;5023227;28;20376;-73
2023/10/19 12:53:55;;;;;;;18.48;6.80;;;;;;;;;;4988510;28;20069;-74
2023/10/19 12:56:24;;;;;;;15.90;6.85;;;;;;;;;;5003420;28;20077;-74
2023/10/19 12:58:50;;;;;;;14.23;6.82;;;;;;;;;;5021542;28;20147;-74
2023/10/19 13:01:17;;;;;;;10.65;4.88;;;;;;;;;;5010461;28;20112;-73
2023/10/19 13:03:45;;;;;;;6.57;3.53;;;;;;;;;;4988422;28;20045;-73
2023/10/19 13:06:14;;;;;;;7.20;4.13;;;;;;;;;;5011253;28;20524;-74
2023/10/19 13:08:40;;;;;;;7.18;3.22;;;;;;;;;;5005855;28;20038;-74
2023/10/19 13:11:07;;;;;;;9.15;3.58;;;;;;;;;;4988897;28;20054;-74
2023/10/19 13:13:32;;;;;;;10.85;5.82;;;;;;;;;;5008730;28;20029;-74
2023/10/19 13:15:59;;;;;;;11.70;4.63;;;;;;;;;;5026464;28;20025;-74
2023/10/19 13:18:27;;;;;;;6.28;3.80;;;;;;;;;;5007839;28;20045;-74
2023/10/19 13:20:54;;;;;;;4.25;2.22;;;;;;;;;;5023539;28;20043;-74
2023/10/19 13:23:23;;;;;;;3.58;2.47;;;;;;;;;;5025525;28;20041;-74
2023/10/19 13:25:50;;;;;;;4.97;2.15;;;;;;;;;;5021116;28;20042;-74
2023/10/19 13:28:17;;;;;;;3.85;2.17;;;;;;;;;;5000409;28;20037;-74
2023/10/19 13:30:55;;;;;;;4.95;2.10;;;;;;;;;;5025599;28;20440;-74
2023/10/19 13:33:21;;;;;;;6.05;2.50;;;;;;;;;;5025103;28;20061;-74
2023/10/19 13:35:48;;;;;;;4.63;2.38;;;;;;;;;;5007874;28;20532;-74
2023/10/19 13:38:15;;;;;;;2.70;1.73;;;;;;;;;;5025685;28;20044;-74
2023/10/19 13:40:41;;;;;;;4.18;1.70;;;;;;;;;;5004357;28;20021;-74
2023/10/19 13:43:08;;;;;;;2.78;1.52;;;;;;;;;;5023872;28;20075;-74
2023/10/19 13:45:35;;;;;;;2.83;1.58;;;;;;;;;;5024471;28;20038;-75
2023/10/19 13:48:03;;;;;;;2.15;1.27;;;;;;;;;;5008795;28;20032;-73
2023/10/19 13:50:29;;;;;;;1.65;1.20;;;;;;;;;;5029490;28;20041;-74
2023/10/19 13:52:56;;;;;;;2.28;1.15;;;;;;;;;;5031277;28;20049;-74
2023/10/19 13:55:23;;;;;;;3.38;1.27;;;;;;;;;;5014665;28;20608;-74
2023/10/19 13:57:49;;;;;;;3.17;1.25;;;;;;;;;;5003383;28;20057;-74
2023/10/19 14:03:01;;;;;;;3.08;1.55;;;;;;;;;;4985905;28;20045;-74
2023/10/19 14:05:27;;;;;;;3.08;1.52;;;;;;;;;;4984908;28;20121;-74
2023/10/19 14:07:53;;;;;;;3.50;1.55;;;;;;;;;;4983984;28;20034;-74
2023/10/19 14:10:22;;;;;;;3.58;1.45;;;;;;;;;;4985938;28;20041;-73
2023/10/19 14:12:48;;;;;;;4.53;1.67;;;;;;;;;;4984927;28;20060;-73
2023/10/19 14:15:20;;;;;;;3.17;1.48;;;;;;;;;;4998711;28;20034;-74
2023/10/19 14:17:47;;;;;;;2.45;1.30;;;;;;;;;;5004317;28;20050;-74
2023/10/19 14:20:14;;;;;;;1.95;1.35;;;;;;;;;;5003215;28;20525;-74
2023/10/19 14:22:40;;;;;;;5.50;1.45;;;;;;;;;;5003599;28;20591;-74
2023/10/19 14:25:08;;;;;;;1.85;1.20;;;;;;;;;;5005564;28;20034;-74
2023/10/19 14:27:34;;;;;;;2.70;1.52;;;;;;;;;;5002796;28;20529;-74
2023/10/19 14:30:00;;;;;;;3.50;1.33;;;;;;;;;;5004937;28;20038;-74
2023/10/19 14:32:26;;;;;;;2.03;1.35;;;;;;;;;;5004628;28;20417;-74
2023/10/19 14:34:53;;;;;;;5.95;1.55;;;;;;;;;;5004698;28;20092;-74
2023/10/19 14:37:19;;;;;;;3.35;1.48;;;;;;;;;;5005079;28;20088;-74
2023/10/19 14:39:45;;;;;;;5.05;1.50;;;;;;;;;;5004456;28;20119;-74
2023/10/19 14:42:10;;;;;;;3.28;1.40;;;;;;;;;;5004343;28;20196;-74
2023/10/19 14:44:36;;;;;;;2.05;1.27;;;;;;;;;;5004023;28;20049;-74
2023/10/19 14:47:04;;;;;;;2.25;1.20;;;;;;;;;;5002664;28;20045;-74
2023/10/19 14:49:29;;;;;;;1.65;1.20;;;;;;;;;;5002894;28;20032;-74
2023/10/19 14:51:55;;;;;;;2.08;1.10;;;;;;;;;;5004593;28;20207;-74
2023/10/19 14:54:21;;;;;;;2.90;1.30;;;;;;;;;;5004274;28;20909;-74
2023/10/19 14:56:46;;;;;;;2.30;1.50;;;;;;;;;;5006148;28;20068;-74